sensor_id;sensor_type;location;lat;lon;timestamp;P1;durP1;ratioP1;P2;durP2;ratioP2
20697;SDS011;10508;50.956;4.640;2023-04-25T00:01:06;11.27;;;2.40;;
20697;SDS011;10508;50.956;4.640;2023-04-25T00:03:33;8.55;;;2.88;;
20697;SDS011;10508;50.956;4.640;2023-04-25T00:06:00;7.13;;;3.03;;
20697;SDS011;10508;50.956;4.640;2023-04-25T00:08:29;10.32;;;3.00;;
20697;SDS011;10508;50.956;4.640;2023-04-25T00:10:56;9.88;;;3.25;;
20697;SDS011;10508;50.956;4.640;2023-04-25T00:13:22;15.57;;;3.05;;
20697;SDS011;10508;50.956;4.640;2023-04-25T00:15:48;10.27;;;3.10;;
20697;SDS011;10508;50.956;4.640;2023-04-25T00:18:15;9.27;;;2.78;;
20697;SDS011;10508;50.956;4.640;2023-04-25T00:20:42;14.20;;;3.50;;
20697;SDS011;10508;50.956;4.640;2023-04-25T00:23:15;12.13;;;4.05;;
20697;SDS011;10508;50.956;4.640;2023-04-25T00:25:45;8.98;;;3.03;;
20697;SDS011;10508;50.956;4.640;2023-04-25T00:28:11;13.55;;;2.90;;
20697;SDS011;10508;50.956;4.640;2023-04-25T00:30:38;6.95;;;2.97;;
20697;SDS011;10508;50.956;4.640;2023-04-25T00:33:04;15.77;;;3.28;;
20697;SDS011;10508;50.956;4.640;2023-04-25T00:35:31;13.73;;;3.13;;
20697;SDS011;10508;50.956;4.640;2023-04-25T00:37:57;14.63;;;3.85;;
20697;SDS011;10508;50.956;4.640;2023-04-25T00:40:23;11.93;;;3.75;;
20697;SDS011;10508;50.956;4.640;2023-04-25T00:42:49;14.23;;;3.55;;
20697;SDS011;10508;50.956;4.640;2023-04-25T00:45:17;10.98;;;3.55;;
20697;SDS011;10508;50.956;4.640;2023-04-25T00:47:43;14.68;;;3.00;;
20697;SDS011;10508;50.956;4.640;2023-04-25T00:50:10;15.00;;;2.97;;
20697;SDS011;10508;50.956;4.640;2023-04-25T00:52:40;10.48;;;3.28;;
20697;SDS011;10508;50.956;4.640;2023-04-25T00:55:06;9.68;;;2.92;;
20697;SDS011;10508;50.956;4.640;2023-04-25T00:57:33;11.63;;;4.00;;
20697;SDS011;10508;50.956;4.640;2023-04-25T00:59:59;13.32;;;4.25;;
20697;SDS011;10508;50.956;4.640;2023-04-25T01:02:26;7.70;;;3.35;;
20697;SDS011;10508;50.956;4.640;2023-04-25T01:04:52;17.52;;;2.97;;
20697;SDS011;10508;50.956;4.640;2023-04-25T01:07:18;7.25;;;2.90;;
20697;SDS011;10508;50.956;4.640;2023-04-25T01:09:45;13.10;;;2.85;;
20697;SDS011;10508;50.956;4.640;2023-04-25T01:12:11;15.90;;;3.00;;
20697;SDS011;10508;50.956;4.640;2023-04-25T01:14:38;13.45;;;3.50;;
20697;SDS011;10508;50.956;4.640;2023-04-25T01:17:04;18.38;;;3.65;;
20697;SDS011;10508;50.956;4.640;2023-04-25T01:19:32;6.70;;;3.38;;
20697;SDS011;10508;50.956;4.640;2023-04-25T01:21:58;14.68;;;3.83;;
20697;SDS011;10508;50.956;4.640;2023-04-25T01:24:25;13.27;;;2.85;;
20697;SDS011;10508;50.956;4.640;2023-04-25T01:26:51;12.93;;;2.47;;
20697;SDS011;10508;50.956;4.640;2023-04-25T01:29:20;11.57;;;2.97;;
20697;SDS011;10508;50.956;4.640;2023-04-25T01:31:46;13.05;;;2.92;;
20697;SDS011;10508;50.956;4.640;2023-04-25T01:34:12;11.10;;;3.08;;
20697;SDS011;10508;50.956;4.640;2023-04-25T01:36:39;9.43;;;3.83;;
20697;SDS011;10508;50.956;4.640;2023-04-25T01:39:05;16.40;;;3.60;;
20697;SDS011;10508;50.956;4.640;2023-04-25T01:41:32;12.57;;;3.53;;
20697;SDS011;10508;50.956;4.640;2023-04-25T01:43:59;10.80;;;2.72;;
20697;SDS011;10508;50.956;4.640;2023-04-25T01:46:26;17.52;;;3.20;;
20697;SDS011;10508;50.956;4.640;2023-04-25T01:48:52;17.92;;;3.08;;
20697;SDS011;10508;50.956;4.640;2023-04-25T01:51:18;9.63;;;2.47;;
20697;SDS011;10508;50.956;4.640;2023-04-25T01:53:44;14.27;;;3.42;;
20697;SDS011;10508;50.956;4.640;2023-04-25T01:56:10;14.00;;;3.10;;
20697;SDS011;10508;50.956;4.640;2023-04-25T01:58:36;7.03;;;2.10;;
20697;SDS011;10508;50.956;4.640;2023-04-25T02:01:02;9.70;;;2.95;;
20697;SDS011;10508;50.956;4.640;2023-04-25T02:03:29;11.65;;;3.03;;
20697;SDS011;10508;50.956;4.640;2023-04-25T02:05:55;10.45;;;2.78;;
20697;SDS011;10508;50.956;4.640;2023-04-25T02:08:21;9.52;;;2.60;;
20697;SDS011;10508;50.956;4.640;2023-04-25T02:10:47;8.57;;;2.88;;
20697;SDS011;10508;50.956;4.640;2023-04-25T02:13:13;9.82;;;3.03;;
20697;SDS011;10508;50.956;4.640;2023-04-25T02:15:39;18.65;;;2.85;;
20697;SDS011;10508;50.956;4.640;2023-04-25T02:18:06;13.10;;;2.47;;
20697;SDS011;10508;50.956;4.640;2023-04-25T02:20:32;13.10;;;3.05;;
20697;SDS011;10508;50.956;4.640;2023-04-25T02:22:58;20.00;;;3.28;;
20697;SDS011;10508;50.956;4.640;2023-04-25T02:25:24;13.70;;;3.10;;
20697;SDS011;10508;50.956;4.640;2023-04-25T02:27:50;6.38;;;2.35;;
20697;SDS011;10508;50.956;4.640;2023-04-25T02:30:16;12.45;;;3.88;;
20697;SDS011;10508;50.956;4.640;2023-04-25T02:32:42;13.13;;;2.85;;
20697;SDS011;10508;50.956;4.640;2023-04-25T02:35:09;13.48;;;2.63;;
20697;SDS011;10508;50.956;4.640;2023-04-25T02:37:36;18.60;;;3.60;;
20697;SDS011;10508;50.956;4.640;2023-04-25T02:40:03;9.68;;;2.55;;
20697;SDS011;10508;50.956;4.640;2023-04-25T02:42:29;12.48;;;2.72;;
20697;SDS011;10508;50.956;4.640;2023-04-25T02:44:56;13.85;;;2.65;;
20697;SDS011;10508;50.956;4.640;2023-04-25T02:47:22;10.90;;;2.75;;
20697;SDS011;10508;50.956;4.640;2023-04-25T02:49:48;16.13;;;3.00;;
20697;SDS011;10508;50.956;4.640;2023-04-25T02:52:14;13.57;;;2.78;;
20697;SDS011;10508;50.956;4.640;2023-04-25T02:54:40;7.53;;;2.40;;
20697;SDS011;10508;50.956;4.640;2023-04-25T02:57:06;9.77;;;2.90;;
20697;SDS011;10508;50.956;4.640;2023-04-25T02:59:32;18.33;;;2.53;;
20697;SDS011;10508;50.956;4.640;2023-04-25T03:01:58;16.85;;;2.70;;
20697;SDS011;10508;50.956;4.640;2023-04-25T03:04:25;10.00;;;2.50;;
20697;SDS011;10508;50.956;4.640;2023-04-25T03:06:51;8.10;;;2.50;;
20697;SDS011;10508;50.956;4.640;2023-04-25T03:09:17;13.02;;;3.05;;
20697;SDS011;10508;50.956;4.640;2023-04-25T03:11:43;15.68;;;2.72;;
20697;SDS011;10508;50.956;4.640;2023-04-25T03:14:10;7.70;;;2.22;;
20697;SDS011;10508;50.956;4.640;2023-04-25T03:16:36;10.05;;;2.65;;
20697;SDS011;10508;50.956;4.640;2023-04-25T03:19:02;18.42;;;3.17;;
20697;SDS011;10508;50.956;4.640;2023-04-25T03:21:28;13.35;;;2.67;;
20697;SDS011;10508;50.956;4.640;2023-04-25T03:23:56;12.80;;;2.53;;
20697;SDS011;10508;50.956;4.640;2023-04-25T03:26:22;16.40;;;3.35;;
20697;SDS011;10508;50.956;4.640;2023-04-25T03:28:48;18.67;;;3.28;;
20697;SDS011;10508;50.956;4.640;2023-04-25T03:31:15;8.93;;;2.50;;
20697;SDS011;10508;50.956;4.640;2023-04-25T03:33:41;16.23;;;2.72;;
20697;SDS011;10508;50.956;4.640;2023-04-25T03:36:07;14.45;;;2.60;;
20697;SDS011;10508;50.956;4.640;2023-04-25T03:38:33;14.40;;;2.42;;
20697;SDS011;10508;50.956;4.640;2023-04-25T03:41:00;11.05;;;3.28;;
20697;SDS011;10508;50.956;4.640;2023-04-25T03:43:26;15.48;;;3.03;;
20697;SDS011;10508;50.956;4.640;2023-04-25T03:45:52;18.92;;;3.67;;
20697;SDS011;10508;50.956;4.640;2023-04-25T03:48:18;10.00;;;2.65;;
20697;SDS011;10508;50.956;4.640;2023-04-25T03:50:49;12.13;;;2.10;;
20697;SDS011;10508;50.956;4.640;2023-04-25T03:53:15;11.65;;;2.55;;
20697;SDS011;10508;50.956;4.640;2023-04-25T03:55:41;8.82;;;2.38;;
20697;SDS011;10508;50.956;4.640;2023-04-25T03:58:07;14.70;;;3.47;;
20697;SDS011;10508;50.956;4.640;2023-04-25T04:00:34;13.38;;;2.38;;
20697;SDS011;10508;50.956;4.640;2023-04-25T04:03:00;10.95;;;2.50;;
20697;SDS011;10508;50.956;4.640;2023-04-25T04:05:26;11.88;;;2.60;;
20697;SDS011;10508;50.956;4.640;2023-04-25T04:07:52;13.07;;;3.20;;
20697;SDS011;10508;50.956;4.640;2023-04-25T04:10:18;8.82;;;2.58;;
20697;SDS011;10508;50.956;4.640;2023-04-25T04:12:44;10.32;;;2.55;;
20697;SDS011;10508;50.956;4.640;2023-04-25T04:15:10;10.45;;;2.28;;
20697;SDS011;10508;50.956;4.640;2023-04-25T04:17:37;14.13;;;3.03;;
20697;SDS011;10508;50.956;4.640;2023-04-25T04:20:03;6.72;;;2.20;;
20697;SDS011;10508;50.956;4.640;2023-04-25T04:22:30;8.93;;;2.83;;
20697;SDS011;10508;50.956;4.640;2023-04-25T04:24:56;11.98;;;2.72;;
20697;SDS011;10508;50.956;4.640;2023-04-25T04:27:22;11.10;;;2.92;;
20697;SDS011;10508;50.956;4.640;2023-04-25T04:29:49;12.43;;;2.92;;
20697;SDS011;10508;50.956;4.640;2023-04-25T04:32:17;12.57;;;2.28;;
20697;SDS011;10508;50.956;4.640;2023-04-25T04:34:43;12.48;;;3.10;;
20697;SDS011;10508;50.956;4.640;2023-04-25T04:37:09;16.70;;;2.63;;
20697;SDS011;10508;50.956;4.640;2023-04-25T04:39:38;11.05;;;2.67;;
20697;SDS011;10508;50.956;4.640;2023-04-25T04:42:04;8.23;;;2.35;;
20697;SDS011;10508;50.956;4.640;2023-04-25T04:44:30;5.82;;;2.05;;
20697;SDS011;10508;50.956;4.640;2023-04-25T04:47:00;9.25;;;2.25;;
20697;SDS011;10508;50.956;4.640;2023-04-25T04:49:26;14.25;;;3.30;;
20697;SDS011;10508;50.956;4.640;2023-04-25T04:51:53;5.80;;;2.30;;
20697;SDS011;10508;50.956;4.640;2023-04-25T04:54:19;8.27;;;2.00;;
20697;SDS011;10508;50.956;4.640;2023-04-25T04:56:45;8.50;;;2.75;;
20697;SDS011;10508;50.956;4.640;2023-04-25T04:59:11;17.95;;;3.42;;
20697;SDS011;10508;50.956;4.640;2023-04-25T05:01:37;8.55;;;2.58;;
20697;SDS011;10508;50.956;4.640;2023-04-25T05:04:04;16.08;;;4.18;;
20697;SDS011;10508;50.956;4.640;2023-04-25T05:06:31;10.27;;;2.65;;
20697;SDS011;10508;50.956;4.640;2023-04-25T05:08:57;18.48;;;3.65;;
20697;SDS011;10508;50.956;4.640;2023-04-25T05:11:24;6.40;;;2.38;;
20697;SDS011;10508;50.956;4.640;2023-04-25T05:13:53;15.70;;;3.20;;
20697;SDS011;10508;50.956;4.640;2023-04-25T05:16:19;10.77;;;2.55;;
20697;SDS011;10508;50.956;4.640;2023-04-25T05:18:45;9.52;;;2.95;;
20697;SDS011;10508;50.956;4.640;2023-04-25T05:21:11;21.73;;;2.97;;
20697;SDS011;10508;50.956;4.640;2023-04-25T05:23:37;16.17;;;3.05;;
20697;SDS011;10508;50.956;4.640;2023-04-25T05:26:04;15.13;;;3.85;;
20697;SDS011;10508;50.956;4.640;2023-04-25T05:28:30;8.88;;;3.15;;
20697;SDS011;10508;50.956;4.640;2023-04-25T05:30:56;10.50;;;3.00;;
20697;SDS011;10508;50.956;4.640;2023-04-25T05:33:22;16.38;;;3.03;;
20697;SDS011;10508;50.956;4.640;2023-04-25T05:35:48;17.60;;;3.60;;
20697;SDS011;10508;50.956;4.640;2023-04-25T05:38:15;13.38;;;3.08;;
20697;SDS011;10508;50.956;4.640;2023-04-25T05:40:41;12.40;;;3.22;;
20697;SDS011;10508;50.956;4.640;2023-04-25T05:43:07;20.67;;;3.13;;
20697;SDS011;10508;50.956;4.640;2023-04-25T05:45:33;10.63;;;3.28;;
20697;SDS011;10508;50.956;4.640;2023-04-25T05:47:59;9.95;;;3.05;;
20697;SDS011;10508;50.956;4.640;2023-04-25T05:50:25;12.68;;;3.05;;
20697;SDS011;10508;50.956;4.640;2023-04-25T05:52:51;10.13;;;3.13;;
20697;SDS011;10508;50.956;4.640;2023-04-25T05:55:17;13.50;;;3.22;;
20697;SDS011;10508;50.956;4.640;2023-04-25T05:57:44;12.50;;;3.30;;
20697;SDS011;10508;50.956;4.640;2023-04-25T06:00:11;17.98;;;3.80;;
20697;SDS011;10508;50.956;4.640;2023-04-25T06:02:37;15.73;;;4.15;;
20697;SDS011;10508;50.956;4.640;2023-04-25T06:05:03;21.05;;;3.72;;
20697;SDS011;10508;50.956;4.640;2023-04-25T06:07:30;19.55;;;3.58;;
20697;SDS011;10508;50.956;4.640;2023-04-25T06:09:56;16.25;;;3.13;;
20697;SDS011;10508;50.956;4.640;2023-04-25T06:12:22;20.63;;;4.35;;
20697;SDS011;10508;50.956;4.640;2023-04-25T06:14:48;11.25;;;2.55;;
20697;SDS011;10508;50.956;4.640;2023-04-25T06:17:14;11.95;;;3.75;;
20697;SDS011;10508;50.956;4.640;2023-04-25T06:19:40;10.15;;;3.35;;
20697;SDS011;10508;50.956;4.640;2023-04-25T06:22:06;13.13;;;3.08;;
20697;SDS011;10508;50.956;4.640;2023-04-25T06:24:33;7.78;;;3.03;;
20697;SDS011;10508;50.956;4.640;2023-04-25T06:27:00;14.50;;;3.22;;
20697;SDS011;10508;50.956;4.640;2023-04-25T06:29:26;12.95;;;3.17;;
20697;SDS011;10508;50.956;4.640;2023-04-25T06:31:52;11.38;;;2.75;;
20697;SDS011;10508;50.956;4.640;2023-04-25T06:34:18;11.48;;;3.35;;
20697;SDS011;10508;50.956;4.640;2023-04-25T06:36:44;10.57;;;3.78;;
20697;SDS011;10508;50.956;4.640;2023-04-25T06:39:11;8.75;;;3.00;;
20697;SDS011;10508;50.956;4.640;2023-04-25T06:41:37;11.88;;;3.25;;
20697;SDS011;10508;50.956;4.640;2023-04-25T06:44:03;16.08;;;3.50;;
20697;SDS011;10508;50.956;4.640;2023-04-25T06:46:30;11.65;;;3.70;;
20697;SDS011;10508;50.956;4.640;2023-04-25T06:48:56;13.30;;;3.72;;
20697;SDS011;10508;50.956;4.640;2023-04-25T06:51:22;16.20;;;3.22;;
20697;SDS011;10508;50.956;4.640;2023-04-25T06:53:49;16.13;;;2.40;;
20697;SDS011;10508;50.956;4.640;2023-04-25T06:56:15;14.63;;;3.58;;
20697;SDS011;10508;50.956;4.640;2023-04-25T06:58:41;20.63;;;3.60;;
20697;SDS011;10508;50.956;4.640;2023-04-25T07:01:07;10.18;;;2.90;;
20697;SDS011;10508;50.956;4.640;2023-04-25T07:03:33;18.27;;;3.33;;
20697;SDS011;10508;50.956;4.640;2023-04-25T07:05:59;10.65;;;2.70;;
20697;SDS011;10508;50.956;4.640;2023-04-25T07:08:25;11.10;;;2.40;;
20697;SDS011;10508;50.956;4.640;2023-04-25T07:10:51;13.25;;;2.83;;
20697;SDS011;10508;50.956;4.640;2023-04-25T07:13:17;20.23;;;3.00;;
20697;SDS011;10508;50.956;4.640;2023-04-25T07:15:43;9.98;;;2.67;;
20697;SDS011;10508;50.956;4.640;2023-04-25T07:18:09;8.98;;;2.53;;
20697;SDS011;10508;50.956;4.640;2023-04-25T07:20:36;11.75;;;2.75;;
20697;SDS011;10508;50.956;4.640;2023-04-25T07:23:02;12.35;;;2.67;;
20697;SDS011;10508;50.956;4.640;2023-04-25T07:25:28;12.00;;;3.20;;
20697;SDS011;10508;50.956;4.640;2023-04-25T07:27:55;16.05;;;3.08;;
20697;SDS011;10508;50.956;4.640;2023-04-25T07:30:21;14.43;;;2.90;;
20697;SDS011;10508;50.956;4.640;2023-04-25T07:32:48;11.55;;;3.95;;
20697;SDS011;10508;50.956;4.640;2023-04-25T07:35:15;14.00;;;2.88;;
20697;SDS011;10508;50.956;4.640;2023-04-25T07:37:41;14.48;;;2.90;;
20697;SDS011;10508;50.956;4.640;2023-04-25T07:40:07;9.27;;;2.63;;
20697;SDS011;10508;50.956;4.640;2023-04-25T07:42:34;11.40;;;2.72;;
20697;SDS011;10508;50.956;4.640;2023-04-25T07:45:00;17.35;;;3.40;;
20697;SDS011;10508;50.956;4.640;2023-04-25T07:47:27;9.52;;;2.60;;
20697;SDS011;10508;50.956;4.640;2023-04-25T07:49:53;10.40;;;2.67;;
20697;SDS011;10508;50.956;4.640;2023-04-25T07:52:21;16.98;;;3.47;;
20697;SDS011;10508;50.956;4.640;2023-04-25T07:54:47;9.05;;;2.70;;
20697;SDS011;10508;50.956;4.640;2023-04-25T07:57:13;9.50;;;2.70;;
20697;SDS011;10508;50.956;4.640;2023-04-25T07:59:39;18.17;;;3.28;;
20697;SDS011;10508;50.956;4.640;2023-04-25T08:02:05;17.45;;;3.50;;
20697;SDS011;10508;50.956;4.640;2023-04-25T08:04:31;12.02;;;2.40;;
20697;SDS011;10508;50.956;4.640;2023-04-25T08:06:57;12.70;;;2.25;;
20697;SDS011;10508;50.956;4.640;2023-04-25T08:09:23;11.82;;;2.13;;
20697;SDS011;10508;50.956;4.640;2023-04-25T08:11:50;4.75;;;1.65;;
20697;SDS011;10508;50.956;4.640;2023-04-25T08:14:16;13.45;;;1.80;;
20697;SDS011;10508;50.956;4.640;2023-04-25T08:16:42;7.35;;;2.08;;
20697;SDS011;10508;50.956;4.640;2023-04-25T08:19:08;9.70;;;2.00;;
20697;SDS011;10508;50.956;4.640;2023-04-25T08:21:35;9.35;;;2.17;;
20697;SDS011;10508;50.956;4.640;2023-04-25T08:24:01;7.03;;;2.13;;
20697;SDS011;10508;50.956;4.640;2023-04-25T08:26:27;9.88;;;2.08;;
20697;SDS011;10508;50.956;4.640;2023-04-25T08:28:53;7.18;;;1.85;;
20697;SDS011;10508;50.956;4.640;2023-04-25T08:31:19;13.25;;;1.83;;
20697;SDS011;10508;50.956;4.640;2023-04-25T08:33:45;9.15;;;2.00;;
20697;SDS011;10508;50.956;4.640;2023-04-25T08:36:11;6.07;;;1.60;;
20697;SDS011;10508;50.956;4.640;2023-04-25T08:38:37;13.55;;;1.88;;
20697;SDS011;10508;50.956;4.640;2023-04-25T08:41:03;9.07;;;2.08;;
20697;SDS011;10508;50.956;4.640;2023-04-25T08:43:30;39.10;;;3.25;;
20697;SDS011;10508;50.956;4.640;2023-04-25T08:45:58;6.10;;;1.70;;
20697;SDS011;10508;50.956;4.640;2023-04-25T08:48:27;7.68;;;1.63;;
20697;SDS011;10508;50.956;4.640;2023-04-25T08:50:56;13.70;;;1.90;;
20697;SDS011;10508;50.956;4.640;2023-04-25T08:53:27;5.15;;;1.40;;
20697;SDS011;10508;50.956;4.640;2023-04-25T08:55:53;8.07;;;1.77;;
20697;SDS011;10508;50.956;4.640;2023-04-25T08:58:19;7.45;;;1.70;;
20697;SDS011;10508;50.956;4.640;2023-04-25T09:00:46;7.65;;;1.77;;
20697;SDS011;10508;50.956;4.640;2023-04-25T09:03:12;10.93;;;1.70;;
20697;SDS011;10508;50.956;4.640;2023-04-25T09:05:40;6.22;;;1.80;;
20697;SDS011;10508;50.956;4.640;2023-04-25T09:08:06;7.72;;;1.83;;
20697;SDS011;10508;50.956;4.640;2023-04-25T09:10:32;7.88;;;2.10;;
20697;SDS011;10508;50.956;4.640;2023-04-25T09:13:23;7.53;;;2.00;;
20697;SDS011;10508;50.956;4.640;2023-04-25T09:15:48;9.10;;;2.28;;
20697;SDS011;10508;50.956;4.640;2023-04-25T09:18:21;8.88;;;1.55;;
20697;SDS011;10508;50.956;4.640;2023-04-25T09:20:49;8.82;;;1.67;;
20697;SDS011;10508;50.956;4.640;2023-04-25T09:23:15;9.82;;;1.67;;
20697;SDS011;10508;50.956;4.640;2023-04-25T09:25:41;5.70;;;1.48;;
20697;SDS011;10508;50.956;4.640;2023-04-25T09:28:08;9.82;;;1.73;;
20697;SDS011;10508;50.956;4.640;2023-04-25T09:30:35;6.15;;;1.50;;
20697;SDS011;10508;50.956;4.640;2023-04-25T09:33:05;13.07;;;1.75;;
20697;SDS011;10508;50.956;4.640;2023-04-25T09:35:39;6.28;;;1.52;;
20697;SDS011;10508;50.956;4.640;2023-04-25T09:38:11;7.90;;;1.88;;
20697;SDS011;10508;50.956;4.640;2023-04-25T09:40:41;7.32;;;1.45;;
20697;SDS011;10508;50.956;4.640;2023-04-25T09:43:10;15.65;;;1.40;;
20697;SDS011;10508;50.956;4.640;2023-04-25T09:45:42;6.72;;;1.58;;
20697;SDS011;10508;50.956;4.640;2023-04-25T09:48:10;4.85;;;1.27;;
20697;SDS011;10508;50.956;4.640;2023-04-25T09:50:36;10.05;;;1.20;;
20697;SDS011;10508;50.956;4.640;2023-04-25T09:53:03;1.70;;;0.80;;
20697;SDS011;10508;50.956;4.640;2023-04-25T09:55:32;4.03;;;1.48;;
20697;SDS011;10508;50.956;4.640;2023-04-25T09:58:01;5.93;;;1.15;;
20697;SDS011;10508;50.956;4.640;2023-04-25T10:00:30;6.10;;;1.23;;
20697;SDS011;10508;50.956;4.640;2023-04-25T10:02:56;5.85;;;1.38;;
20697;SDS011;10508;50.956;4.640;2023-04-25T10:05:23;6.93;;;1.35;;
20697;SDS011;10508;50.956;4.640;2023-04-25T10:07:49;1.90;;;1.10;;
20697;SDS011;10508;50.956;4.640;2023-04-25T10:10:16;3.42;;;1.13;;
20697;SDS011;10508;50.956;4.640;2023-04-25T10:12:43;4.10;;;1.10;;
20697;SDS011;10508;50.956;4.640;2023-04-25T10:15:10;4.68;;;1.30;;
20697;SDS011;10508;50.956;4.640;2023-04-25T10:17:36;1.63;;;1.00;;
20697;SDS011;10508;50.956;4.640;2023-04-25T10:20:02;4.13;;;1.30;;
20697;SDS011;10508;50.956;4.640;2023-04-25T10:22:34;6.47;;;1.05;;
20697;SDS011;10508;50.956;4.640;2023-04-25T10:25:01;6.97;;;1.15;;
20697;SDS011;10508;50.956;4.640;2023-04-25T10:27:29;3.92;;;0.98;;
20697;SDS011;10508;50.956;4.640;2023-04-25T10:32:30;2.95;;;1.00;;
20697;SDS011;10508;50.956;4.640;2023-04-25T10:34:56;3.45;;;0.80;;
20697;SDS011;10508;50.956;4.640;2023-04-25T10:37:22;3.67;;;0.90;;
20697;SDS011;10508;50.956;4.640;2023-04-25T10:39:50;12.52;;;1.20;;
20697;SDS011;10508;50.956;4.640;2023-04-25T10:42:18;6.32;;;1.40;;
20697;SDS011;10508;50.956;4.640;2023-04-25T10:45:00;5.40;;;1.20;;
20697;SDS011;10508;50.956;4.640;2023-04-25T10:47:34;6.63;;;1.38;;
20697;SDS011;10508;50.956;4.640;2023-04-25T10:50:04;6.97;;;1.27;;
20697;SDS011;10508;50.956;4.640;2023-04-25T10:52:32;7.13;;;1.23;;
20697;SDS011;10508;50.956;4.640;2023-04-25T10:54:58;7.75;;;1.40;;
20697;SDS011;10508;50.956;4.640;2023-04-25T11:00:01;10.05;;;1.25;;
20697;SDS011;10508;50.956;4.640;2023-04-25T11:02:30;8.50;;;1.38;;
20697;SDS011;10508;50.956;4.640;2023-04-25T11:04:56;4.82;;;1.10;;
20697;SDS011;10508;50.956;4.640;2023-04-25T11:07:33;9.52;;;1.50;;
20697;SDS011;10508;50.956;4.640;2023-04-25T11:10:03;5.28;;;1.10;;
20697;SDS011;10508;50.956;4.640;2023-04-25T11:12:33;5.07;;;1.30;;
20697;SDS011;10508;50.956;4.640;2023-04-25T11:15:00;6.30;;;0.90;;
20697;SDS011;10508;50.956;4.640;2023-04-25T11:17:26;1.48;;;0.68;;
20697;SDS011;10508;50.956;4.640;2023-04-25T11:19:52;4.78;;;1.30;;
20697;SDS011;10508;50.956;4.640;2023-04-25T11:22:21;5.10;;;0.93;;
20697;SDS011;10508;50.956;4.640;2023-04-25T11:24:47;5.95;;;1.20;;
20697;SDS011;10508;50.956;4.640;2023-04-25T11:27:13;3.92;;;1.30;;
20697;SDS011;10508;50.956;4.640;2023-04-25T11:29:40;5.03;;;1.40;;
20697;SDS011;10508;50.956;4.640;2023-04-25T11:32:06;4.65;;;1.98;;
20697;SDS011;10508;50.956;4.640;2023-04-25T11:34:33;5.72;;;2.05;;
20697;SDS011;10508;50.956;4.640;2023-04-25T11:36:59;8.05;;;1.67;;
20697;SDS011;10508;50.956;4.640;2023-04-25T11:39:26;6.95;;;1.63;;
20697;SDS011;10508;50.956;4.640;2023-04-25T11:41:53;7.43;;;2.65;;
20697;SDS011;10508;50.956;4.640;2023-04-25T11:44:19;3.47;;;1.17;;
20697;SDS011;10508;50.956;4.640;2023-04-25T11:46:45;8.32;;;1.70;;
20697;SDS011;10508;50.956;4.640;2023-04-25T11:49:12;5.60;;;1.50;;
20697;SDS011;10508;50.956;4.640;2023-04-25T11:51:39;4.50;;;1.50;;
20697;SDS011;10508;50.956;4.640;2023-04-25T11:54:05;4.47;;;1.02;;
20697;SDS011;10508;50.956;4.640;2023-04-25T11:56:31;8.38;;;1.60;;
20697;SDS011;10508;50.956;4.640;2023-04-25T11:58:58;4.95;;;1.73;;
20697;SDS011;10508;50.956;4.640;2023-04-25T12:01:32;14.07;;;1.38;;
20697;SDS011;10508;50.956;4.640;2023-04-25T12:03:58;6.65;;;1.25;;
20697;SDS011;10508;50.956;4.640;2023-04-25T12:06:28;3.88;;;1.50;;
20697;SDS011;10508;50.956;4.640;2023-04-25T12:09:01;4.32;;;1.52;;
20697;SDS011;10508;50.956;4.640;2023-04-25T12:11:29;4.95;;;1.60;;
20697;SDS011;10508;50.956;4.640;2023-04-25T12:13:55;1.95;;;1.13;;
20697;SDS011;10508;50.956;4.640;2023-04-25T12:16:21;3.28;;;1.30;;
20697;SDS011;10508;50.956;4.640;2023-04-25T12:18:47;4.50;;;0.77;;
20697;SDS011;10508;50.956;4.640;2023-04-25T12:21:13;4.30;;;1.08;;
20697;SDS011;10508;50.956;4.640;2023-04-25T12:23:39;3.55;;;1.10;;
20697;SDS011;10508;50.956;4.640;2023-04-25T12:26:06;5.10;;;1.40;;
20697;SDS011;10508;50.956;4.640;2023-04-25T12:28:32;2.47;;;1.05;;
20697;SDS011;10508;50.956;4.640;2023-04-25T12:33:26;7.85;;;1.70;;
20697;SDS011;10508;50.956;4.640;2023-04-25T12:35:53;4.65;;;1.10;;
20697;SDS011;10508;50.956;4.640;2023-04-25T12:38:22;8.05;;;0.93;;
20697;SDS011;10508;50.956;4.640;2023-04-25T12:40:48;3.17;;;0.90;;
20697;SDS011;10508;50.956;4.640;2023-04-25T12:43:14;2.95;;;0.60;;
20697;SDS011;10508;50.956;4.640;2023-04-25T12:45:40;2.40;;;0.80;;
20697;SDS011;10508;50.956;4.640;2023-04-25T12:48:06;2.63;;;0.90;;
20697;SDS011;10508;50.956;4.640;2023-04-25T12:50:32;8.73;;;1.13;;
20697;SDS011;10508;50.956;4.640;2023-04-25T12:52:58;4.55;;;1.23;;
20697;SDS011;10508;50.956;4.640;2023-04-25T12:55:25;4.50;;;0.73;;
20697;SDS011;10508;50.956;4.640;2023-04-25T12:57:51;4.07;;;1.33;;
20697;SDS011;10508;50.956;4.640;2023-04-25T13:00:17;4.43;;;0.70;;
20697;SDS011;10508;50.956;4.640;2023-04-25T13:02:45;10.35;;;1.42;;
20697;SDS011;10508;50.956;4.640;2023-04-25T13:05:12;3.63;;;0.90;;
20697;SDS011;10508;50.956;4.640;2023-04-25T13:07:38;5.30;;;0.75;;
20697;SDS011;10508;50.956;4.640;2023-04-25T13:10:04;4.80;;;1.05;;
20697;SDS011;10508;50.956;4.640;2023-04-25T13:12:31;3.95;;;0.95;;
20697;SDS011;10508;50.956;4.640;2023-04-25T13:14:57;4.85;;;0.82;;
20697;SDS011;10508;50.956;4.640;2023-04-25T13:17:23;3.47;;;1.17;;
20697;SDS011;10508;50.956;4.640;2023-04-25T13:19:49;4.68;;;0.90;;
20697;SDS011;10508;50.956;4.640;2023-04-25T13:22:15;8.77;;;1.13;;
20697;SDS011;10508;50.956;4.640;2023-04-25T13:24:44;4.28;;;0.90;;
20697;SDS011;10508;50.956;4.640;2023-04-25T13:27:10;2.25;;;0.90;;
20697;SDS011;10508;50.956;4.640;2023-04-25T13:29:36;1.60;;;0.90;;
20697;SDS011;10508;50.956;4.640;2023-04-25T13:32:03;7.25;;;1.13;;
20697;SDS011;10508;50.956;4.640;2023-04-25T13:34:30;3.22;;;1.05;;
20697;SDS011;10508;50.956;4.640;2023-04-25T13:36:56;5.45;;;1.23;;
20697;SDS011;10508;50.956;4.640;2023-04-25T13:39:22;5.18;;;1.10;;
20697;SDS011;10508;50.956;4.640;2023-04-25T13:41:48;4.55;;;1.42;;
20697;SDS011;10508;50.956;4.640;2023-04-25T13:44:14;2.03;;;1.17;;
20697;SDS011;10508;50.956;4.640;2023-04-25T13:46:40;3.50;;;1.30;;
20697;SDS011;10508;50.956;4.640;2023-04-25T13:49:06;4.40;;;0.95;;
20697;SDS011;10508;50.956;4.640;2023-04-25T13:51:32;6.68;;;1.00;;
20697;SDS011;10508;50.956;4.640;2023-04-25T13:53:58;4.80;;;1.35;;
20697;SDS011;10508;50.956;4.640;2023-04-25T13:56:24;4.13;;;1.25;;
20697;SDS011;10508;50.956;4.640;2023-04-25T13:58:50;6.00;;;1.50;;
20697;SDS011;10508;50.956;4.640;2023-04-25T14:01:17;6.13;;;1.10;;
20697;SDS011;10508;50.956;4.640;2023-04-25T14:03:43;5.15;;;1.35;;
20697;SDS011;10508;50.956;4.640;2023-04-25T14:06:10;4.35;;;0.70;;
20697;SDS011;10508;50.956;4.640;2023-04-25T14:08:37;6.10;;;0.80;;
20697;SDS011;10508;50.956;4.640;2023-04-25T14:11:03;1.67;;;0.77;;
20697;SDS011;10508;50.956;4.640;2023-04-25T14:13:29;3.58;;;0.80;;
20697;SDS011;10508;50.956;4.640;2023-04-25T14:15:55;7.45;;;1.15;;
20697;SDS011;10508;50.956;4.640;2023-04-25T14:18:21;4.80;;;1.23;;
20697;SDS011;10508;50.956;4.640;2023-04-25T14:20:47;4.25;;;0.88;;
20697;SDS011;10508;50.956;4.640;2023-04-25T14:23:13;2.42;;;0.93;;
20697;SDS011;10508;50.956;4.640;2023-04-25T14:25:40;4.05;;;0.68;;
20697;SDS011;10508;50.956;4.640;2023-04-25T14:28:07;5.60;;;1.88;;
20697;SDS011;10508;50.956;4.640;2023-04-25T14:30:33;4.95;;;1.00;;
20697;SDS011;10508;50.956;4.640;2023-04-25T14:32:59;11.45;;;1.55;;
20697;SDS011;10508;50.956;4.640;2023-04-25T14:35:25;2.35;;;0.65;;
20697;SDS011;10508;50.956;4.640;2023-04-25T14:37:51;14.45;;;1.58;;
20697;SDS011;10508;50.956;4.640;2023-04-25T14:40:18;4.55;;;0.95;;
20697;SDS011;10508;50.956;4.640;2023-04-25T14:42:47;3.75;;;0.80;;
20697;SDS011;10508;50.956;4.640;2023-04-25T14:45:14;5.05;;;0.80;;